Time;durP1;ratioP1;P1;durP2;ratioP2;P2;SDS_P1;SDS_P2;PMS_P1;PMS_P2;Temp;Humidity;BMP_temperature;BMP_pressure;BME280_temperature;BME280_humidity;BME280_pressure;Samples;Min_cycle;Max_cycle;Signal;HPM_P1;HPM_P2
2021/06/24 03:30:19;;;;;;;10.00;4.60;;;;;;;13.84;75.40;92748.84;5740122;24;20028;-78
2021/06/24 03:32:45;;;;;;;12.95;4.53;;;;;;;13.85;75.73;92753.03;4749149;30;20143;-76
2021/06/24 03:35:11;;;;;;;9.48;4.78;;;;;;;13.84;75.58;92756.72;4735058;30;20135;-77
2021/06/24 03:37:38;;;;;;;9.50;4.53;;;;;;;13.84;75.91;92758.59;4720403;30;20052;-77
2021/06/24 03:40:09;;;;;;;10.27;4.85;;;;;;;13.85;75.87;92763.56;4720330;30;20044;-77
2021/06/24 03:42:36;;;;;;;10.65;4.82;;;;;;;13.85;75.64;92763.56;4717145;30;20040;-77
2021/06/24 03:45:04;;;;;;;11.75;5.88;;;;;;;13.87;75.66;92768.50;4720953;30;20041;-77
2021/06/24 03:47:30;;;;;;;9.50;5.45;;;;;;;13.90;75.08;92766.06;4726803;30;20055;-77
2021/06/24 03:49:56;;;;;;;12.02;4.80;;;;;;;13.92;75.36;92763.94;4732516;30;20416;-78
2021/06/24 03:52:22;;;;;;;10.25;4.95;;;;;;;13.94;75.67;92759.13;4717460;30;20045;-77
2021/06/24 03:54:48;;;;;;;13.45;5.18;;;;;;;13.99;76.09;92755.59;4717667;30;20463;-77
2021/06/24 03:57:15;;;;;;;17.10;5.85;;;;;;;14.02;76.14;92762.88;4732208;30;20040;-77
2021/06/24 03:59:54;;;;;;;14.13;5.63;;;;;;;14.04;75.78;92763.38;4732218;30;20041;-77
2021/06/24 04:02:22;;;;;;;10.55;5.25;;;;;;;14.08;76.06;92763.56;4731829;30;20684;-77
2021/06/24 04:04:47;;;;;;;13.63;5.13;;;;;;;14.09;75.87;92765.09;4732092;30;20049;-77
2021/06/24 04:07:14;;;;;;;13.40;5.05;;;;;;;14.08;76.17;92768.81;4732076;30;20041;-77
2021/06/24 04:09:41;;;;;;;12.02;5.50;;;;;;;14.11;76.17;92773.47;4717397;30;20067;-77
2021/06/24 04:12:07;;;;;;;13.27;5.10;;;;;;;14.11;76.35;92774.25;4731954;30;20053;-77
2021/06/24 04:14:51;;;;;;;12.73;5.05;;;;;;;14.13;76.35;92768.69;4719030;30;20412;-77
2021/06/24 04:17:28;;;;;;;13.55;5.07;;;;;;;14.16;76.71;92765.44;4720437;30;20053;-78
2021/06/24 04:19:54;;;;;;;15.77;5.65;;;;;;;14.19;76.97;92770.13;4720693;30;20057;-78
2021/06/24 04:22:21;;;;;;;15.13;5.45;;;;;;;14.21;76.71;92767.97;4719183;30;20045;-78
2021/06/24 04:25:11;;;;;;;13.95;5.47;;;;;;;14.23;76.39;92765.81;4731032;30;20136;-78
2021/06/24 04:27:37;;;;;;;10.73;5.13;;;;;;;14.25;76.42;92758.41;4733714;30;20508;-78
2021/06/24 04:30:04;;;;;;;11.90;4.90;;;;;;;14.26;76.22;92762.59;4723105;30;20059;-77
2021/06/24 04:32:32;;;;;;;12.00;5.05;;;;;;;14.31;75.89;92765.06;4724441;30;20047;-78
2021/06/24 04:34:58;;;;;;;10.25;5.10;;;;;;;14.38;75.98;92765.41;4738956;30;20044;-77
2021/06/24 04:37:24;;;;;;;11.73;5.05;;;;;;;14.46;75.56;92768.41;4724615;30;20041;-77
2021/06/24 04:39:50;;;;;;;8.00;4.68;;;;;;;14.58;75.37;92766.00;4754215;30;20415;-77
2021/06/24 04:42:23;;;;;;;11.23;5.25;;;;;;;14.65;75.00;92771.63;4724813;30;20128;-77
2021/06/24 04:45:15;;;;;;;15.18;4.95;;;;;;;14.76;74.47;92772.91;4740350;30;20099;-77
2021/06/24 04:47:55;;;;;;;23.42;5.25;;;;;;;14.90;74.63;92774.66;4741845;30;20052;-78
2021/06/24 04:50:22;;;;;;;11.00;4.60;;;;;;;15.01;74.31;92769.88;4736043;30;20049;-78
2021/06/24 04:52:52;;;;;;;10.43;4.50;;;;;;;15.12;73.91;92773.78;4737394;30;20048;-78
2021/06/24 04:55:24;;;;;;;11.60;4.32;;;;;;;15.24;73.58;92771.31;4736875;30;20075;-78
2021/06/24 04:57:52;;;;;;;15.98;4.65;;;;;;;15.38;73.40;92779.13;4721617;30;20052;-77
2021/06/24 05:00:43;;;;;;;15.45;4.43;;;;;;;15.53;72.99;92781.31;4735559;30;20562;-77
2021/06/24 05:03:27;;;;;;;10.73;4.28;;;;;;;15.69;72.40;92770.28;4736999;30;20063;-77
2021/06/24 05:05:58;;;;;;;12.68;3.95;;;;;;;15.83;72.08;92776.25;4737121;30;20056;-78
2021/06/24 05:08:27;;;;;;;11.77;4.63;;;;;;;15.95;71.96;92776.38;4750139;30;20416;-78
2021/06/24 05:10:53;;;;;;;12.73;4.50;;;;;;;16.09;71.95;92778.84;4735646;30;20040;-77
2021/06/24 05:13:18;;;;;;;10.57;4.40;;;;;;;16.23;71.62;92776.81;4736985;30;20526;-77
2021/06/24 05:15:45;;;;;;;8.27;4.10;;;;;;;16.43;71.19;92771.94;4750846;30;20040;-78
2021/06/24 05:18:13;;;;;;;14.40;4.65;;;;;;;16.63;70.77;92773.13;4721371;30;20385;-78
2021/06/24 05:20:39;;;;;;;17.52;4.40;;;;;;;16.85;70.02;92770.28;4736536;30;20033;-78
2021/06/24 05:23:07;;;;;;;8.18;4.20;;;;;;;17.03;69.60;92778.91;4736849;30;20036;-78
2021/06/24 05:25:32;;;;;;;11.20;4.10;;;;;;;17.21;69.05;92774.31;4737013;30;20052;-78
2021/06/24 05:27:58;;;;;;;9.25;4.05;;;;;;;17.42;68.57;92776.22;4735297;30;20407;-78
2021/06/24 05:30:24;;;;;;;14.30;4.05;;;;;;;17.63;68.78;92779.66;4740078;30;20161;-78
2021/06/24 05:32:50;;;;;;;10.73;3.60;;;;;;;17.84;67.61;92778.91;4738138;30;20052;-78
2021/06/24 05:35:16;;;;;;;9.98;3.83;;;;;;;18.01;66.89;92784.09;4738343;30;20044;-78
2021/06/24 05:37:41;;;;;;;8.48;3.92;;;;;;;18.20;66.39;92785.47;4738207;30;20499;-77
2021/06/24 05:40:08;;;;;;;7.03;3.30;;;;;;;18.41;65.45;92783.53;4754132;30;20112;-78
2021/06/24 05:42:33;;;;;;;9.10;3.33;;;;;;;18.66;60.43;92783.59;4737752;30;20411;-77
2021/06/24 05:44:59;;;;;;;13.10;3.72;;;;;;;18.78;62.42;92783.66;4723656;30;20051;-78
2021/06/24 05:47:24;;;;;;;10.77;3.85;;;;;;;19.11;60.94;92788.09;4738010;30;20055;-78
2021/06/24 05:49:50;;;;;;;9.38;3.38;;;;;;;19.55;57.43;92789.06;4753254;30;20582;-78
2021/06/24 05:52:16;;;;;;;8.32;3.50;;;;;;;19.89;57.63;92792.34;4753852;30;20062;-78
2021/06/24 05:54:41;;;;;;;9.50;3.58;;;;;;;20.20;55.39;92785.63;4752581;30;20135;-77
2021/06/24 05:57:07;;;;;;;10.73;3.83;;;;;;;21.83;53.11;92792.63;4752281;30;20056;-78
2021/06/24 05:59:33;;;;;;;12.45;3.67;;;;;;;22.30;50.28;92784.81;4752553;30;20498;-78
2021/06/24 06:01:58;;;;;;;9.60;3.30;;;;;;;21.87;49.12;92789.28;4753758;30;20040;-77
2021/06/24 06:04:24;;;;;;;9.05;3.53;;;;;;;22.57;48.78;92791.81;4752492;30;20055;-77
2021/06/24 06:06:50;;;;;;;7.93;3.50;;;;;;;23.58;48.29;92794.25;4753152;30;20121;-78
2021/06/24 06:09:15;;;;;;;10.75;3.30;;;;;;;23.49;49.76;92791.84;4737959;30;20047;-78
2021/06/24 06:11:43;;;;;;;12.02;3.80;;;;;;;23.56;48.91;92790.41;4753297;30;20048;-78
2021/06/24 06:14:09;;;;;;;10.77;4.40;;;;;;;24.01;47.39;92788.75;4754001;30;20043;-78
2021/06/24 06:16:35;;;;;;;7.85;3.53;;;;;;;26.01;42.81;92787.16;4756933;30;20060;-79
2021/06/24 06:19:01;;;;;;;10.65;4.05;;;;;;;26.89;40.11;92792.47;4754619;30;20044;-79
2021/06/24 06:21:29;;;;;;;11.02;3.55;;;;;;;27.77;38.06;92784.81;4755557;30;20040;-79
2021/06/24 06:23:56;;;;;;;12.93;3.53;;;;;;;28.45;32.82;92782.72;4755983;30;20052;-78
2021/06/24 06:26:23;;;;;;;11.90;3.58;;;;;;;29.16;32.20;92794.31;4755974;30;20060;-79
2021/06/24 06:28:50;;;;;;;15.25;3.50;;;;;;;29.12;32.92;92798.97;4755709;30;20040;-79
2021/06/24 06:31:19;;;;;;;14.73;4.28;;;;;;;27.89;35.27;92797.88;4765267;30;20067;-80
2021/06/24 06:33:44;;;;;;;14.13;3.95;;;;;;;28.80;35.06;92796.41;4774273;30;20075;-79
2021/06/24 06:36:10;;;;;;;14.43;3.72;;;;;;;29.13;35.04;92799.72;4774986;30;20062;-79
2021/06/24 06:38:37;;;;;;;8.85;3.90;;;;;;;26.60;40.57;92794.34;4773734;30;20035;-79
2021/06/24 06:41:03;;;;;;;6.50;3.38;;;;;;;26.88;38.06;92804.34;4743381;30;20180;-79
2021/06/24 06:43:29;;;;;;;14.60;4.03;;;;;;;25.94;42.16;92801.31;4757930;30;20503;-79
2021/06/24 06:45:54;;;;;;;13.70;4.68;;;;;;;22.61;46.78;92803.31;4757868;30;20070;-79
2021/06/24 06:48:20;;;;;;;9.02;3.47;;;;;;;22.83;48.55;92806.34;4773881;30;20487;-79
2021/06/24 06:50:47;;;;;;;8.93;3.72;;;;;;;22.31;51.19;92805.03;4773219;30;20040;-79
2021/06/24 06:53:15;;;;;;;15.65;3.80;;;;;;;22.07;50.41;92808.72;4774409;30;20078;-79
2021/06/24 06:55:42;;;;;;;7.47;3.40;;;;;;;22.00;47.22;92812.00;4773623;30;20066;-79
2021/06/24 06:58:08;;;;;;;13.20;3.75;;;;;;;21.72;51.24;92810.28;4772124;30;20051;-79
2021/06/24 07:00:35;;;;;;;11.45;3.38;;;;;;;21.63;51.98;92815.78;4773276;30;20055;-79
2021/06/24 07:03:02;;;;;;;8.23;3.58;;;;;;;21.73;49.80;92819.81;4773716;30;20063;-79
2021/06/24 07:05:27;;;;;;;10.75;3.50;;;;;;;21.99;48.92;92818.44;4773364;30;20469;-80
2021/06/24 07:07:54;;;;;;;7.72;3.47;;;;;;;22.24;47.20;92816.31;4757346;30;20063;-79
2021/06/24 07:10:20;;;;;;;9.00;3.50;;;;;;;22.46;46.38;92822.84;4773299;30;20048;-80
2021/06/24 07:12:46;;;;;;;10.55;4.13;;;;;;;22.22;45.53;92819.34;4758195;30;20042;-80
2021/06/24 07:15:13;;;;;;;8.15;3.40;;;;;;;22.08;47.33;92819.03;4771984;30;20130;-79
2021/06/24 07:17:40;;;;;;;11.18;3.80;;;;;;;21.85;48.12;92816.25;4773056;30;20050;-80
2021/06/24 07:20:06;;;;;;;13.07;3.80;;;;;;;21.64;50.48;92821.91;4771909;30;20043;-80
2021/06/24 07:22:33;;;;;;;13.65;4.13;;;;;;;21.67;51.47;92823.88;4772606;30;20103;-79
2021/06/24 07:24:59;;;;;;;9.57;4.15;;;;;;;21.49;54.22;92820.03;4757180;30;20081;-79
2021/06/24 07:27:24;;;;;;;12.52;4.00;;;;;;;21.38;53.19;92825.84;4757449;30;20052;-80
2021/06/24 07:29:50;;;;;;;10.85;3.70;;;;;;;21.65;51.44;92823.44;4767737;30;20110;-80
2021/06/24 07:32:17;;;;;;;13.90;4.13;;;;;;;21.65;52.88;92820.00;4739119;30;20112;-80
2021/06/24 07:34:43;;;;;;;8.35;4.22;;;;;;;21.29;54.48;92824.47;4740060;30;20036;-80
2021/06/24 07:37:09;;;;;;;14.63;4.60;;;;;;;21.74;52.38;92825.91;4754995;30;20102;-79
2021/06/24 07:39:35;;;;;;;9.07;4.00;;;;;;;21.46;54.78;92831.34;4739790;30;20608;-80
2021/06/24 07:42:00;;;;;;;11.93;4.70;;;;;;;21.21;55.03;92831.53;4738592;30;20032;-80
2021/06/24 07:44:26;;;;;;;12.48;3.90;;;;;;;21.37;56.52;92826.97;4755397;30;20048;-80
2021/06/24 07:46:52;;;;;;;12.45;3.92;;;;;;;21.61;53.14;92828.69;4738891;30;20088;-80
2021/06/24 07:49:17;;;;;;;11.05;4.63;;;;;;;21.48;52.18;92824.59;4754837;30;20087;-79
2021/06/24 07:51:45;;;;;;;11.43;4.43;;;;;;;21.68;52.34;92828.06;4754430;30;20041;-80
2021/06/24 07:54:10;;;;;;;8.77;4.20;;;;;;;21.48;55.31;92829.13;4753721;30;20032;-80
2021/06/24 07:56:36;;;;;;;12.32;5.00;;;;;;;21.40;56.19;92830.84;4755197;30;20055;-80
2021/06/24 07:59:02;;;;;;;7.90;4.45;;;;;;;21.18;57.53;92832.22;4754430;30;20044;-79
2021/06/24 08:01:27;;;;;;;9.55;4.70;;;;;;;21.39;57.35;92829.28;4755864;30;20048;-80
2021/06/24 08:03:54;;;;;;;12.75;4.68;;;;;;;21.78;57.15;92826.78;4753865;30;20052;-80
2021/06/24 08:06:21;;;;;;;11.93;4.50;;;;;;;22.11;52.29;92825.53;4755397;30;20048;-80
2021/06/24 08:08:46;;;;;;;10.48;4.03;;;;;;;22.34;49.71;92831.00;4753697;30;20216;-80
2021/06/24 08:11:12;;;;;;;12.77;4.70;;;;;;;22.42;49.58;92828.09;4739362;30;20051;-79
2021/06/24 08:13:39;;;;;;;11.30;4.60;;;;;;;22.45;52.50;92824.75;4755206;30;20056;-80
2021/06/24 08:16:05;;;;;;;12.98;4.60;;;;;;;22.36;50.20;92823.41;4724317;30;20070;-79
2021/06/24 08:18:30;;;;;;;13.80;4.38;;;;;;;22.57;49.18;92831.06;4755077;30;20676;-80
2021/06/24 08:20:56;;;;;;;11.70;4.60;;;;;;;22.61;49.42;92838.00;4739075;30;20098;-79
2021/06/24 08:23:22;;;;;;;9.40;3.83;;;;;;;22.42;49.68;92832.66;4754177;30;20040;-80
2021/06/24 08:25:48;;;;;;;9.48;4.00;;;;;;;22.42;50.39;92838.00;4754619;30;20349;-79
2021/06/24 08:28:14;;;;;;;14.45;4.20;;;;;;;22.26;52.20;92834.66;4753937;30;20060;-80
2021/06/24 08:30:44;;;;;;;10.20;4.32;;;;;;;22.28;50.29;92838.50;4747250;30;20121;-79
2021/06/24 08:33:12;;;;;;;9.65;3.85;;;;;;;21.98;52.29;92841.66;4776577;30;20048;-79
2021/06/24 08:35:38;;;;;;;13.85;4.00;;;;;;;21.98;51.41;92843.56;4776080;30;20047;-80
2021/06/24 08:38:05;;;;;;;12.18;4.25;;;;;;;22.27;52.21;92844.16;4776383;30;20481;-80
2021/06/24 08:40:31;;;;;;;8.77;4.07;;;;;;;22.06;53.33;92842.59;4775528;30;20043;-79
2021/06/24 08:42:57;;;;;;;11.38;4.40;;;;;;;22.04;52.67;92839.50;4759923;30;20032;-79
2021/06/24 08:45:24;;;;;;;12.55;4.40;;;;;;;21.82;53.61;92852.38;4774172;30;20044;-79
2021/06/24 08:47:52;;;;;;;13.95;4.68;;;;;;;21.44;52.09;92842.38;4759733;30;20578;-80
2021/06/24 08:50:18;;;;;;;9.07;4.25;;;;;;;21.63;51.61;92846.97;4774543;30;20058;-80
2021/06/24 08:52:49;;;;;;;9.50;4.10;;;;;;;22.12;48.70;92846.53;4775401;30;20036;-80
2021/06/24 08:55:19;;;;;;;9.50;4.25;;;;;;;22.27;50.35;92850.31;4774603;30;20518;-80
2021/06/24 08:57:45;;;;;;;11.32;4.53;;;;;;;22.24;50.81;92843.75;4775814;30;20040;-80
2021/06/24 09:00:13;;;;;;;12.75;4.05;;;;;;;22.17;50.23;92842.81;4774503;30;20046;-80
2021/06/24 09:02:46;;;;;;;13.98;4.30;;;;;;;22.47;52.79;92850.28;4776115;30;20097;-78
2021/06/24 09:05:13;;;;;;;9.75;4.28;;;;;;;22.54;49.53;92845.88;4777769;30;20073;-78
2021/06/24 09:07:53;;;;;;;15.70;4.60;;;;;;;23.04;49.70;92846.03;4777349;30;20048;-79
2021/06/24 09:10:23;;;;;;;9.10;3.97;;;;;;;23.00;46.71;92845.97;4778916;30;20043;-80
2021/06/24 09:13:03;;;;;;;11.48;4.25;;;;;;;23.15;50.34;92840.91;4775314;30;20718;-79
2021/06/24 09:15:36;;;;;;;11.10;3.90;;;;;;;23.59;49.39;92838.53;4775721;30;20052;-80
2021/06/24 09:18:03;;;;;;;9.70;3.55;;;;;;;23.67;45.46;92834.09;4775650;30;20054;-79
2021/06/24 09:20:32;;;;;;;11.15;3.50;;;;;;;23.32;45.78;92844.97;4775296;30;20116;-79
2021/06/24 09:23:21;;;;;;;10.65;3.78;;;;;;;23.09;44.01;92837.75;4775176;30;20114;-80
2021/06/24 09:26:08;;;;;;;6.05;3.10;;;;;;;22.84;44.54;92839.94;4775105;30;20525;-79
2021/06/24 09:28:43;;;;;;;9.18;4.18;;;;;;;23.12;46.35;92831.69;4773285;30;20097;-80
2021/06/24 09:31:30;;;;;;;16.60;3.70;;;;;;;23.27;47.49;92835.38;4760859;30;20056;-79
2021/06/24 09:34:08;;;;;;;9.25;3.63;;;;;;;22.74;45.83;92843.19;4756871;30;20046;-79
2021/06/24 09:36:38;;;;;;;9.75;3.20;;;;;;;23.19;42.99;92836.38;4741369;30;20503;-80
2021/06/24 09:39:31;;;;;;;10.32;3.65;;;;;;;23.29;42.59;92833.09;4741079;30;20055;-80
2021/06/24 09:41:59;;;;;;;12.65;3.40;;;;;;;23.00;43.62;92839.88;4755693;30;20040;-80
2021/06/24 09:44:26;;;;;;;10.27;3.60;;;;;;;23.24;45.88;92839.53;4755934;30;20040;-79
2021/06/24 09:46:53;;;;;;;8.50;4.10;;;;;;;23.05;44.87;92836.91;4740666;30;20033;-79
2021/06/24 09:49:58;;;;;;;8.55;3.80;;;;;;;23.10;44.84;92849.19;4756580;30;20131;-80
2021/06/24 09:52:24;;;;;;;15.55;4.55;;;;;;;22.61;46.17;92834.56;4749885;30;20059;-80
2021/06/24 09:55:10;;;;;;;17.23;4.00;;;;;;;23.13;47.46;92837.81;4757252;30;20036;-80
2021/06/24 09:57:36;;;;;;;10.93;3.90;;;;;;;23.49;43.69;92841.81;4756901;30;20036;-79
2021/06/24 10:00:21;;;;;;;15.75;4.57;;;;;;;23.57;45.96;92837.34;4740926;30;20576;-80
2021/06/24 10:03:05;;;;;;;11.00;3.80;;;;;;;23.49;45.10;92841.81;4756871;30;20063;-79
2021/06/24 10:05:31;;;;;;;9.98;4.00;;;;;;;23.30;46.82;92847.22;4755678;30;20052;-79
2021/06/24 10:07:58;;;;;;;8.45;3.75;;;;;;;23.72;44.68;92838.34;4740438;30;20047;-79
2021/06/24 10:10:24;;;;;;;11.10;4.00;;;;;;;23.66;45.27;92833.31;4740942;30;20052;-79
2021/06/24 10:12:50;;;;;;;8.95;3.65;;;;;;;24.00;44.40;92832.66;4755014;30;20055;-79
2021/06/24 10:15:17;;;;;;;8.95;3.85;;;;;;;24.07;44.56;92840.75;4740708;30;20131;-79
2021/06/24 10:17:43;;;;;;;9.13;4.13;;;;;;;23.65;43.70;92831.75;4756171;30;20052;-78
2021/06/24 10:20:11;;;;;;;10.73;4.20;;;;;;;23.77;44.52;92836.16;4756324;30;20032;-79
2021/06/24 10:22:38;;;;;;;9.00;4.10;;;;;;;23.46;47.37;92850.53;4754620;30;20488;-79
2021/06/24 10:25:09;;;;;;;10.18;4.03;;;;;;;23.32;45.88;92851.09;4756030;30;20370;-79
2021/06/24 10:27:37;;;;;;;15.00;5.23;;;;;;;22.74;46.17;92845.84;4756139;30;20067;-79
2021/06/24 10:30:15;;;;;;;12.05;4.10;;;;;;;23.21;46.39;92840.22;4756948;30;21010;-79
2021/06/24 10:32:42;;;;;;;13.77;4.47;;;;;;;23.49;45.81;92839.91;4773118;30;20044;-79
2021/06/24 10:35:25;;;;;;;16.75;4.78;;;;;;;23.52;43.79;92840.34;4773619;30;20104;-79
2021/06/24 10:37:52;;;;;;;10.63;4.38;;;;;;;23.44;45.41;92834.88;4773175;30;20157;-79
2021/06/24 10:40:33;;;;;;;15.02;4.93;;;;;;;23.25;45.82;92840.28;4757797;30;20035;-79
2021/06/24 10:43:04;;;;;;;16.88;5.22;;;;;;;23.13;45.72;92835.13;4773390;30;20119;-79
2021/06/24 10:45:30;;;;;;;12.02;4.85;;;;;;;22.98;45.63;92831.41;4757469;30;20530;-79
2021/06/24 10:47:57;;;;;;;11.85;4.80;;;;;;;23.06;45.19;92838.47;4757710;30;20047;-81
2021/06/24 10:50:26;;;;;;;13.05;5.22;;;;;;;23.37;46.33;92836.66;4757645;30;20047;-79
2021/06/24 10:52:55;;;;;;;14.80;5.63;;;;;;;24.02;44.29;92822.34;4772260;30;20076;-80
2021/06/24 10:55:42;;;;;;;15.02;5.00;;;;;;;24.01;44.39;92826.19;4758037;30;20093;-79
2021/06/24 10:58:10;;;;;;;12.18;5.13;;;;;;;24.48;44.91;92828.31;4772765;30;20087;-79
2021/06/24 11:00:39;;;;;;;15.50;5.22;;;;;;;24.31;45.79;92831.53;4772494;30;20043;-79
2021/06/24 11:03:08;;;;;;;20.30;5.43;;;;;;;23.78;43.93;92824.34;4773620;30;20130;-80
2021/06/24 11:05:36;;;;;;;13.10;4.63;;;;;;;23.54;44.96;92820.13;4772638;30;20134;-79
2021/06/24 11:08:12;;;;;;;12.73;5.07;;;;;;;23.29;45.98;92830.44;4771833;30;20410;-79
2021/06/24 11:10:55;;;;;;;10.57;5.70;;;;;;;23.66;44.49;92827.97;4773098;30;20100;-80
2021/06/24 11:13:50;;;;;;;11.95;5.13;;;;;;;24.46;43.29;92833.22;4773044;30;20554;-79
2021/06/24 11:16:16;;;;;;;9.18;4.30;;;;;;;25.10;42.98;92821.69;4770553;30;20136;-79
2021/06/24 11:18:48;;;;;;;11.13;4.05;;;;;;;24.75;37.42;92828.25;4771455;30;20499;-79
2021/06/24 11:21:24;;;;;;;9.70;3.80;;;;;;;24.62;41.54;92810.88;4771652;30;20059;-80
2021/06/24 11:23:55;;;;;;;10.95;4.70;;;;;;;24.61;39.83;92820.81;4756709;30;20038;-79
2021/06/24 11:26:24;;;;;;;11.90;4.97;;;;;;;24.57;40.43;92819.25;4772998;30;20051;-79
2021/06/24 11:28:55;;;;;;;10.05;4.50;;;;;;;24.37;39.95;92815.94;4771196;30;20036;-79
2021/06/24 11:31:35;;;;;;;11.17;4.80;;;;;;;24.33;39.50;92815.13;4741612;30;20072;-79
2021/06/24 11:36:51;;;;;;;8.18;4.72;;;;;;;24.11;39.76;92812.16;4754840;30;20054;-79
2021/06/24 11:39:26;;;;;;;11.88;5.78;;;;;;;24.53;38.75;92803.16;4739347;30;20046;-80
2021/06/24 11:41:54;;;;;;;14.30;5.45;;;;;;;24.42;40.21;92802.22;4755029;30;20040;-79
2021/06/24 11:44:50;;;;;;;10.88;4.90;;;;;;;24.55;40.06;92808.91;4754346;30;20099;-79
2021/06/24 11:47:21;;;;;;;17.10;6.10;;;;;;;24.42;38.59;92799.56;4740465;30;20065;-79
2021/06/24 12:04:01;;;;;;;14.43;6.57;;;;;;;24.20;40.03;92807.31;4737545;30;20047;-79
2021/06/24 12:06:52;;;;;;;14.07;6.25;;;;;;;24.03;39.43;92800.63;4753984;30;20033;-79
2021/06/24 12:09:22;;;;;;;13.57;5.00;;;;;;;23.97;40.00;92803.97;4740239;30;20055;-79
2021/06/24 12:11:50;;;;;;;16.20;6.35;;;;;;;24.17;38.71;92789.31;4724213;30;20056;-79
2021/06/24 12:14:16;;;;;;;17.15;6.38;;;;;;;24.20;39.43;92801.97;4754174;30;20048;-79
2021/06/24 12:17:05;;;;;;;19.15;6.65;;;;;;;24.50;38.38;92795.84;4740382;30;20055;-79
2021/06/24 12:19:51;;;;;;;17.35;5.07;;;;;;;24.48;39.90;92785.50;4738722;30;20040;-79
2021/06/24 12:22:23;;;;;;;14.02;5.32;;;;;;;24.28;38.92;92784.09;4753402;30;20127;-79
2021/06/24 12:24:50;;;;;;;10.40;5.13;;;;;;;24.57;39.16;92771.09;4753440;30;20041;-79
2021/06/24 12:27:27;;;;;;;19.60;6.32;;;;;;;24.06;38.92;92770.47;4740478;30;20189;-79
2021/06/24 12:29:56;;;;;;;14.02;5.95;;;;;;;24.52;40.67;92764.91;4741926;30;20068;-79
2021/06/24 12:32:23;;;;;;;16.25;5.88;;;;;;;24.52;38.56;92764.16;4775124;30;20118;-79
2021/06/24 12:34:50;;;;;;;13.50;5.32;;;;;;;24.78;38.20;92757.91;4774764;30;20155;-80
2021/06/24 12:37:35;;;;;;;14.15;4.70;;;;;;;24.54;38.50;92751.16;4759238;30;20526;-79
2021/06/24 12:40:04;;;;;;;13.25;4.57;;;;;;;24.70;39.78;92729.50;4744218;30;20098;-79
2021/06/24 12:42:30;;;;;;;10.45;3.97;;;;;;;24.80;39.51;92736.88;4775178;30;20040;-79
2021/06/24 12:44:59;;;;;;;9.30;3.72;;;;;;;24.91;37.55;92739.66;4775520;30;20036;-79
2021/06/24 12:47:38;;;;;;;13.77;3.47;;;;;;;24.42;37.48;92728.06;4767366;30;20039;-79
2021/06/24 12:50:16;;;;;;;7.35;3.60;;;;;;;24.61;37.38;92726.38;4757301;30;20062;-79
2021/06/24 12:52:59;;;;;;;7.68;3.55;;;;;;;24.26;37.35;92722.19;4756186;30;20518;-79
2021/06/24 12:55:44;;;;;;;9.75;4.40;;;;;;;24.79;36.28;92713.94;4771104;30;20044;-79
2021/06/24 12:58:17;;;;;;;11.02;3.90;;;;;;;24.82;37.91;92702.47;4771004;30;20411;-79
2021/06/24 13:01:12;;;;;;;11.65;3.92;;;;;;;24.65;36.71;92695.81;4771203;30;20047;-80
2021/06/24 13:03:47;;;;;;;11.55;3.33;;;;;;;24.25;34.39;92685.84;4740635;30;20109;-79
2021/06/24 13:06:46;;;;;;;7.85;3.50;;;;;;;24.52;36.59;92683.88;4757574;30;20078;-79
2021/06/24 13:09:16;;;;;;;8.43;3.85;;;;;;;24.27;38.78;92692.41;4738784;30;20052;-79
2021/06/24 13:12:02;;;;;;;13.30;3.95;;;;;;;24.42;37.52;92695.22;4757012;30;20399;-79
2021/06/24 13:14:34;;;;;;;10.45;3.50;;;;;;;24.20;38.36;92697.66;4741171;30;20060;-79
2021/06/24 13:17:09;;;;;;;9.73;3.53;;;;;;;24.25;37.55;92701.91;4770880;30;20040;-79
2021/06/24 13:19:39;;;;;;;14.38;4.25;;;;;;;23.96;37.46;92703.50;4757311;30;20412;-79
2021/06/24 13:22:19;;;;;;;9.13;3.58;;;;;;;24.03;38.30;92692.91;4756610;30;20080;-79
2021/06/24 13:24:50;;;;;;;12.43;3.20;;;;;;;23.62;37.03;92693.53;4769786;30;20051;-79
2021/06/24 13:27:22;;;;;;;8.67;3.53;;;;;;;23.61;37.34;92691.97;4756564;30;20055;-79
2021/06/24 13:30:07;;;;;;;6.38;3.08;;;;;;;23.35;38.58;92697.34;4768040;30;20297;-79
2021/06/24 13:32:36;;;;;;;9.38;3.83;;;;;;;23.22;39.78;92702.16;4756577;30;20052;-79
2021/06/24 13:35:25;;;;;;;5.82;3.38;;;;;;;23.04;38.46;92691.97;4741066;30;20407;-79
2021/06/24 13:38:01;;;;;;;12.15;3.22;;;;;;;23.23;39.50;92706.34;4756873;30;20508;-79
2021/06/24 13:40:38;;;;;;;10.32;2.85;;;;;;;22.94;38.92;92708.56;4727450;30;20055;-80
2021/06/24 13:43:06;;;;;;;9.43;3.22;;;;;;;22.68;39.46;92717.31;4756756;30;20265;-79
2021/06/24 13:45:32;;;;;;;9.25;3.20;;;;;;;22.16;40.89;92721.31;4739986;30;20076;-79
2021/06/24 13:47:59;;;;;;;9.27;3.25;;;;;;;22.21;40.57;92716.47;4756111;30;20502;-79
2021/06/24 13:50:25;;;;;;;18.33;3.70;;;;;;;22.08;41.83;92728.38;4754567;30;20063;-79
2021/06/24 13:52:50;;;;;;;7.35;3.17;;;;;;;22.11;40.92;92722.38;4740212;30;20465;-79
2021/06/24 13:55:16;;;;;;;7.65;3.10;;;;;;;22.26;40.87;92720.00;4740119;30;20040;-80
2021/06/24 13:57:42;;;;;;;9.43;3.45;;;;;;;22.15;40.76;92723.19;4739286;30;20079;-77
2021/06/24 14:00:08;;;;;;;12.23;3.40;;;;;;;22.13;41.21;92724.66;4752766;30;20496;-77
2021/06/24 14:02:39;;;;;;;8.15;3.20;;;;;;;22.12;40.12;92723.13;4752541;30;20595;-77
2021/06/24 14:05:06;;;;;;;9.07;3.83;;;;;;;22.08;40.16;92724.97;4752447;30;20443;-77
2021/06/24 14:07:31;;;;;;;13.13;3.30;;;;;;;22.14;40.54;92727.00;4736781;30;20036;-78
2021/06/24 14:09:57;;;;;;;9.32;3.00;;;;;;;21.97;40.14;92727.41;4752378;30;20044;-77
2021/06/24 14:12:23;;;;;;;6.70;3.17;;;;;;;21.95;40.86;92729.66;4752353;30;20091;-78
2021/06/24 14:14:48;;;;;;;7.10;3.17;;;;;;;21.92;40.40;92715.13;4752191;30;20063;-77
2021/06/24 14:17:14;;;;;;;11.00;3.15;;;;;;;21.98;40.41;92728.97;4752614;30;20541;-77
2021/06/24 14:19:40;;;;;;;11.77;3.80;;;;;;;21.78;40.88;92725.53;4736404;30;20403;-77
2021/06/24 14:22:07;;;;;;;5.53;2.97;;;;;;;21.69;40.59;92725.72;4752237;30;20086;-77
2021/06/24 14:24:36;;;;;;;10.68;3.30;;;;;;;21.59;40.52;92707.63;4752228;30;20048;-78
2021/06/24 14:27:04;;;;;;;12.60;3.60;;;;;;;21.70;40.79;92707.84;4751506;30;20048;-77
2021/06/24 14:29:33;;;;;;;9.10;3.03;;;;;;;21.53;40.82;92701.81;4750293;30;20064;-77
2021/06/24 14:31:58;;;;;;;7.78;3.13;;;;;;;21.61;40.76;92706.16;4747764;30;20071;-77
2021/06/24 14:34:25;;;;;;;13.32;3.30;;;;;;;21.48;41.07;92703.97;4751821;30;20052;-77
2021/06/24 14:36:53;;;;;;;9.32;3.22;;;;;;;21.53;40.36;92703.72;4751972;30;20078;-78
2021/06/24 14:39:18;;;;;;;9.15;3.13;;;;;;;21.38;41.12;92707.91;4735441;30;20550;-77
2021/06/24 14:41:44;;;;;;;6.50;3.20;;;;;;;21.34;43.01;92709.72;4750317;30;20130;-77
2021/06/24 14:44:10;;;;;;;7.47;3.35;;;;;;;21.23;42.71;92709.50;4750342;30;20044;-77
2021/06/24 14:46:35;;;;;;;9.45;3.67;;;;;;;21.18;42.31;92705.22;4750262;30;20058;-77
2021/06/24 14:49:02;;;;;;;7.50;2.95;;;;;;;21.14;42.41;92708.91;4750217;30;20154;-77
2021/06/24 14:51:28;;;;;;;8.13;3.30;;;;;;;21.13;42.75;92712.69;4750414;30;20513;-77
2021/06/24 14:53:54;;;;;;;8.40;3.50;;;;;;;21.12;42.71;92714.59;4750130;30;20040;-77
2021/06/24 14:56:20;;;;;;;8.60;3.38;;;;;;;21.12;42.99;92711.13;4749915;30;20067;-78
2021/06/24 14:58:50;;;;;;;8.48;3.30;;;;;;;21.03;43.87;92716.66;4751280;30;20059;-77
2021/06/24 15:01:17;;;;;;;9.95;3.47;;;;;;;21.02;44.65;92706.38;4750530;30;20048;-77
2021/06/24 15:03:43;;;;;;;13.55;4.75;;;;;;;20.73;50.85;92711.00;4750072;30;20040;-77
2021/06/24 15:06:09;;;;;;;9.52;4.38;;;;;;;20.52;54.07;92711.25;4735518;30;20448;-77
2021/06/24 15:08:35;;;;;;;8.38;4.20;;;;;;;20.10;54.75;92719.66;4749676;30;20504;-77
2021/06/24 15:11:01;;;;;;;9.98;4.28;;;;;;;19.82;55.20;92717.03;4749356;30;20055;-77
2021/06/24 15:13:26;;;;;;;8.77;3.50;;;;;;;19.45;54.59;92709.13;4750870;30;20399;-77
2021/06/24 15:15:52;;;;;;;9.07;3.15;;;;;;;18.96;54.47;92701.22;4749673;30;20052;-77
2021/06/24 15:18:17;;;;;;;15.98;3.00;;;;;;;18.64;55.71;92730.13;4750778;30;20144;-77
2021/06/24 15:20:44;;;;;;;9.15;2.88;;;;;;;18.21;56.27;92752.56;4750583;30;20028;-77
2021/06/24 15:23:12;;;;;;;7.15;3.10;;;;;;;17.88;58.49;92801.00;4734446;30;20048;-77
2021/06/24 15:25:38;;;;;;;22.00;4.13;;;;;;;17.10;61.28;92814.69;4749294;30;20537;-77
2021/06/24 15:28:04;;;;;;;23.13;4.30;;;;;;;16.51;63.40;92831.16;4748970;30;20048;-77